sensor_id;sensor_type;location;lat;lon;timestamp;P1;durP1;ratioP1;P2;durP2;ratioP2
10383;SDS011;5238;43.508;4.980;2023-02-15T00:01:35;27.35;;;21.48;;
10383;SDS011;5238;43.508;4.980;2023-02-15T00:04:04;27.15;;;21.27;;
10383;SDS011;5238;43.508;4.980;2023-02-15T00:06:32;29.83;;;22.95;;
10383;SDS011;5238;43.508;4.980;2023-02-15T00:09:00;27.65;;;22.63;;
10383;SDS011;5238;43.508;4.980;2023-02-15T00:11:29;29.63;;;23.55;;
10383;SDS011;5238;43.508;4.980;2023-02-15T00:14:06;26.25;;;20.92;;
10383;SDS011;5238;43.508;4.980;2023-02-15T00:16:35;26.38;;;21.15;;
10383;SDS011;5238;43.508;4.980;2023-02-15T00:19:03;24.55;;;20.55;;
10383;SDS011;5238;43.508;4.980;2023-02-15T00:21:33;28.48;;;22.23;;
10383;SDS011;5238;43.508;4.980;2023-02-15T00:24:03;27.65;;;22.05;;
10383;SDS011;5238;43.508;4.980;2023-02-15T00:26:32;32.10;;;21.83;;
10383;SDS011;5238;43.508;4.980;2023-02-15T00:29:03;26.05;;;21.92;;
10383;SDS011;5238;43.508;4.980;2023-02-15T00:31:31;29.90;;;22.48;;
10383;SDS011;5238;43.508;4.980;2023-02-15T00:34:00;28.83;;;23.48;;
10383;SDS011;5238;43.508;4.980;2023-02-15T00:36:29;27.75;;;22.27;;
10383;SDS011;5238;43.508;4.980;2023-02-15T00:38:56;28.33;;;22.90;;
10383;SDS011;5238;43.508;4.980;2023-02-15T00:41:23;29.02;;;24.05;;
10383;SDS011;5238;43.508;4.980;2023-02-15T00:43:51;28.45;;;22.98;;
10383;SDS011;5238;43.508;4.980;2023-02-15T00:46:18;31.50;;;22.65;;
10383;SDS011;5238;43.508;4.980;2023-02-15T00:48:45;26.92;;;22.23;;
10383;SDS011;5238;43.508;4.980;2023-02-15T00:51:12;27.95;;;23.02;;
10383;SDS011;5238;43.508;4.980;2023-02-15T00:53:40;30.17;;;22.38;;
10383;SDS011;5238;43.508;4.980;2023-02-15T00:56:07;28.17;;;23.65;;
10383;SDS011;5238;43.508;4.980;2023-02-15T00:58:34;30.08;;;23.50;;
10383;SDS011;5238;43.508;4.980;2023-02-15T01:01:03;28.25;;;23.60;;
10383;SDS011;5238;43.508;4.980;2023-02-15T01:03:34;29.90;;;23.45;;
10383;SDS011;5238;43.508;4.980;2023-02-15T01:06:03;28.10;;;23.92;;
10383;SDS011;5238;43.508;4.980;2023-02-15T01:08:31;28.52;;;23.02;;
10383;SDS011;5238;43.508;4.980;2023-02-15T01:11:04;27.95;;;22.30;;
10383;SDS011;5238;43.508;4.980;2023-02-15T01:13:31;30.65;;;23.98;;
10383;SDS011;5238;43.508;4.980;2023-02-15T01:15:59;27.60;;;22.35;;
10383;SDS011;5238;43.508;4.980;2023-02-15T01:18:26;30.40;;;24.42;;
10383;SDS011;5238;43.508;4.980;2023-02-15T01:20:54;29.92;;;22.83;;
10383;SDS011;5238;43.508;4.980;2023-02-15T01:23:21;28.52;;;23.00;;
10383;SDS011;5238;43.508;4.980;2023-02-15T01:25:48;28.45;;;22.17;;
10383;SDS011;5238;43.508;4.980;2023-02-15T01:28:18;26.40;;;22.02;;
10383;SDS011;5238;43.508;4.980;2023-02-15T01:30:45;30.73;;;23.58;;
10383;SDS011;5238;43.508;4.980;2023-02-15T01:33:12;27.95;;;22.05;;
10383;SDS011;5238;43.508;4.980;2023-02-15T01:35:42;29.23;;;22.92;;
10383;SDS011;5238;43.508;4.980;2023-02-15T01:38:10;30.88;;;22.92;;
10383;SDS011;5238;43.508;4.980;2023-02-15T01:40:39;30.45;;;23.80;;
10383;SDS011;5238;43.508;4.980;2023-02-15T01:43:08;28.42;;;23.02;;
10383;SDS011;5238;43.508;4.980;2023-02-15T01:45:39;30.98;;;23.65;;
10383;SDS011;5238;43.508;4.980;2023-02-15T01:48:12;29.98;;;23.00;;
10383;SDS011;5238;43.508;4.980;2023-02-15T01:50:51;31.27;;;23.75;;
10383;SDS011;5238;43.508;4.980;2023-02-15T01:53:23;29.83;;;23.50;;
10383;SDS011;5238;43.508;4.980;2023-02-15T01:55:53;29.15;;;22.08;;
10383;SDS011;5238;43.508;4.980;2023-02-15T01:58:26;30.50;;;23.45;;
10383;SDS011;5238;43.508;4.980;2023-02-15T02:00:56;29.80;;;23.35;;
10383;SDS011;5238;43.508;4.980;2023-02-15T02:03:36;29.48;;;23.77;;
10383;SDS011;5238;43.508;4.980;2023-02-15T02:06:14;29.20;;;23.25;;
10383;SDS011;5238;43.508;4.980;2023-02-15T02:08:41;29.00;;;23.42;;
10383;SDS011;5238;43.508;4.980;2023-02-15T02:11:10;30.88;;;22.45;;
10383;SDS011;5238;43.508;4.980;2023-02-15T02:13:37;28.17;;;22.60;;
10383;SDS011;5238;43.508;4.980;2023-02-15T02:16:10;30.83;;;23.33;;
10383;SDS011;5238;43.508;4.980;2023-02-15T02:18:47;24.23;;;21.45;;
10383;SDS011;5238;43.508;4.980;2023-02-15T02:27:38;26.15;;;20.70;;
10383;SDS011;5238;43.508;4.980;2023-02-15T02:36:05;26.92;;;21.25;;
10383;SDS011;5238;43.508;4.980;2023-02-15T02:38:42;24.65;;;21.13;;
10383;SDS011;5238;43.508;4.980;2023-02-15T02:41:20;27.25;;;21.05;;
10383;SDS011;5238;43.508;4.980;2023-02-15T02:44:02;26.45;;;20.33;;
10383;SDS011;5238;43.508;4.980;2023-02-15T02:46:37;27.48;;;21.63;;
10383;SDS011;5238;43.508;4.980;2023-02-15T02:49:11;25.75;;;20.83;;
10383;SDS011;5238;43.508;4.980;2023-02-15T02:51:40;26.20;;;22.33;;
10383;SDS011;5238;43.508;4.980;2023-02-15T02:54:25;26.88;;;22.20;;
10383;SDS011;5238;43.508;4.980;2023-02-15T02:56:52;27.63;;;21.27;;
10383;SDS011;5238;43.508;4.980;2023-02-15T02:59:25;25.52;;;22.33;;
10383;SDS011;5238;43.508;4.980;2023-02-15T03:01:56;30.05;;;21.63;;
10383;SDS011;5238;43.508;4.980;2023-02-15T03:04:31;30.65;;;21.67;;
10383;SDS011;5238;43.508;4.980;2023-02-15T03:07:04;28.50;;;21.70;;
10383;SDS011;5238;43.508;4.980;2023-02-15T03:09:37;26.23;;;20.77;;
10383;SDS011;5238;43.508;4.980;2023-02-15T03:12:09;31.67;;;22.40;;
10383;SDS011;5238;43.508;4.980;2023-02-15T03:14:39;29.48;;;22.60;;
10383;SDS011;5238;43.508;4.980;2023-02-15T03:17:08;26.40;;;21.27;;
10383;SDS011;5238;43.508;4.980;2023-02-15T03:19:42;26.77;;;21.48;;
10383;SDS011;5238;43.508;4.980;2023-02-15T03:22:12;27.67;;;21.42;;
10383;SDS011;5238;43.508;4.980;2023-02-15T03:24:46;29.50;;;23.33;;
10383;SDS011;5238;43.508;4.980;2023-02-15T03:27:17;29.88;;;23.70;;
10383;SDS011;5238;43.508;4.980;2023-02-15T03:29:47;31.88;;;25.65;;
10383;SDS011;5238;43.508;4.980;2023-02-15T03:32:24;33.90;;;23.90;;
10383;SDS011;5238;43.508;4.980;2023-02-15T03:34:55;32.55;;;25.80;;
10383;SDS011;5238;43.508;4.980;2023-02-15T03:37:23;33.15;;;25.52;;
10383;SDS011;5238;43.508;4.980;2023-02-15T03:39:56;34.40;;;26.38;;
10383;SDS011;5238;43.508;4.980;2023-02-15T03:42:46;33.13;;;25.55;;
10383;SDS011;5238;43.508;4.980;2023-02-15T03:45:20;35.65;;;26.75;;
10383;SDS011;5238;43.508;4.980;2023-02-15T03:47:51;34.28;;;26.58;;
10383;SDS011;5238;43.508;4.980;2023-02-15T03:50:27;34.55;;;27.50;;
10383;SDS011;5238;43.508;4.980;2023-02-15T03:53:25;37.95;;;27.10;;
10383;SDS011;5238;43.508;4.980;2023-02-15T03:55:55;34.10;;;27.92;;
10383;SDS011;5238;43.508;4.980;2023-02-15T03:58:25;42.58;;;28.38;;
10383;SDS011;5238;43.508;4.980;2023-02-15T04:01:13;34.72;;;27.13;;
10383;SDS011;5238;43.508;4.980;2023-02-15T04:04:07;34.42;;;26.80;;
10383;SDS011;5238;43.508;4.980;2023-02-15T04:06:43;35.80;;;27.40;;
10383;SDS011;5238;43.508;4.980;2023-02-15T04:09:10;38.80;;;28.42;;
10383;SDS011;5238;43.508;4.980;2023-02-15T04:12:09;39.95;;;29.48;;
10383;SDS011;5238;43.508;4.980;2023-02-15T04:14:36;37.47;;;26.70;;
10383;SDS011;5238;43.508;4.980;2023-02-15T04:17:21;35.35;;;27.02;;
10383;SDS011;5238;43.508;4.980;2023-02-15T04:19:48;38.65;;;27.65;;
10383;SDS011;5238;43.508;4.980;2023-02-15T04:22:37;38.53;;;27.80;;
10383;SDS011;5238;43.508;4.980;2023-02-15T04:25:22;38.33;;;28.75;;
10383;SDS011;5238;43.508;4.980;2023-02-15T04:27:49;36.10;;;26.83;;
10383;SDS011;5238;43.508;4.980;2023-02-15T04:30:18;33.92;;;26.75;;
10383;SDS011;5238;43.508;4.980;2023-02-15T04:32:46;38.22;;;28.33;;
10383;SDS011;5238;43.508;4.980;2023-02-15T04:35:16;35.17;;;26.65;;
10383;SDS011;5238;43.508;4.980;2023-02-15T04:37:45;39.20;;;27.02;;
10383;SDS011;5238;43.508;4.980;2023-02-15T04:40:12;33.00;;;25.33;;
10383;SDS011;5238;43.508;4.980;2023-02-15T04:42:40;39.65;;;27.90;;
10383;SDS011;5238;43.508;4.980;2023-02-15T04:45:07;32.92;;;25.45;;
10383;SDS011;5238;43.508;4.980;2023-02-15T04:47:34;30.23;;;24.17;;
10383;SDS011;5238;43.508;4.980;2023-02-15T04:50:01;34.40;;;24.30;;
10383;SDS011;5238;43.508;4.980;2023-02-15T04:52:28;31.50;;;24.63;;
10383;SDS011;5238;43.508;4.980;2023-02-15T04:54:58;31.58;;;23.83;;
10383;SDS011;5238;43.508;4.980;2023-02-15T04:57:27;30.23;;;23.92;;
10383;SDS011;5238;43.508;4.980;2023-02-15T04:59:54;29.38;;;23.67;;
10383;SDS011;5238;43.508;4.980;2023-02-15T05:02:20;31.38;;;24.40;;
10383;SDS011;5238;43.508;4.980;2023-02-15T05:04:48;33.88;;;24.98;;
10383;SDS011;5238;43.508;4.980;2023-02-15T05:07:15;35.22;;;25.67;;
10383;SDS011;5238;43.508;4.980;2023-02-15T05:09:42;36.13;;;27.60;;
10383;SDS011;5238;43.508;4.980;2023-02-15T05:12:11;39.47;;;28.40;;
10383;SDS011;5238;43.508;4.980;2023-02-15T05:14:38;40.78;;;28.52;;
10383;SDS011;5238;43.508;4.980;2023-02-15T05:17:05;40.28;;;28.75;;
10383;SDS011;5238;43.508;4.980;2023-02-15T05:19:32;36.30;;;27.38;;
10383;SDS011;5238;43.508;4.980;2023-02-15T05:21:59;36.35;;;28.83;;
10383;SDS011;5238;43.508;4.980;2023-02-15T05:24:28;37.72;;;27.80;;
10383;SDS011;5238;43.508;4.980;2023-02-15T05:27:14;34.53;;;26.42;;
10383;SDS011;5238;43.508;4.980;2023-02-15T05:29:58;34.50;;;24.42;;
10383;SDS011;5238;43.508;4.980;2023-02-15T05:32:25;31.45;;;24.08;;
10383;SDS011;5238;43.508;4.980;2023-02-15T05:34:52;30.45;;;23.90;;
10383;SDS011;5238;43.508;4.980;2023-02-15T05:37:19;32.70;;;25.70;;
10383;SDS011;5238;43.508;4.980;2023-02-15T05:39:46;33.00;;;23.25;;
10383;SDS011;5238;43.508;4.980;2023-02-15T05:42:14;29.38;;;23.30;;
10383;SDS011;5238;43.508;4.980;2023-02-15T05:44:43;28.73;;;21.83;;
10383;SDS011;5238;43.508;4.980;2023-02-15T05:47:10;29.10;;;21.63;;
10383;SDS011;5238;43.508;4.980;2023-02-15T05:49:37;27.55;;;21.45;;
10383;SDS011;5238;43.508;4.980;2023-02-15T05:52:04;31.55;;;22.48;;
10383;SDS011;5238;43.508;4.980;2023-02-15T05:54:31;31.58;;;24.05;;
10383;SDS011;5238;43.508;4.980;2023-02-15T05:56:58;27.95;;;22.63;;
10383;SDS011;5238;43.508;4.980;2023-02-15T05:59:26;30.65;;;21.88;;
10383;SDS011;5238;43.508;4.980;2023-02-15T06:01:53;29.20;;;23.35;;
10383;SDS011;5238;43.508;4.980;2023-02-15T06:04:20;30.42;;;23.40;;
10383;SDS011;5238;43.508;4.980;2023-02-15T06:06:47;32.05;;;22.92;;
10383;SDS011;5238;43.508;4.980;2023-02-15T06:09:16;30.15;;;22.70;;
10383;SDS011;5238;43.508;4.980;2023-02-15T06:11:46;31.85;;;22.65;;
10383;SDS011;5238;43.508;4.980;2023-02-15T06:14:13;33.45;;;23.80;;
10383;SDS011;5238;43.508;4.980;2023-02-15T06:16:42;31.42;;;24.38;;
10383;SDS011;5238;43.508;4.980;2023-02-15T06:19:09;42.65;;;25.42;;
10383;SDS011;5238;43.508;4.980;2023-02-15T06:21:36;33.33;;;22.48;;
10383;SDS011;5238;43.508;4.980;2023-02-15T06:24:03;32.28;;;24.15;;
10383;SDS011;5238;43.508;4.980;2023-02-15T06:26:30;30.48;;;22.63;;
10383;SDS011;5238;43.508;4.980;2023-02-15T06:28:57;35.72;;;23.10;;
10383;SDS011;5238;43.508;4.980;2023-02-15T06:31:24;33.03;;;22.55;;
10383;SDS011;5238;43.508;4.980;2023-02-15T06:33:53;32.70;;;24.33;;
10383;SDS011;5238;43.508;4.980;2023-02-15T06:36:25;31.35;;;22.35;;
10383;SDS011;5238;43.508;4.980;2023-02-15T06:38:52;30.02;;;22.92;;
10383;SDS011;5238;43.508;4.980;2023-02-15T06:41:19;32.58;;;23.88;;
10383;SDS011;5238;43.508;4.980;2023-02-15T06:43:48;30.98;;;23.77;;
10383;SDS011;5238;43.508;4.980;2023-02-15T06:46:18;35.08;;;25.27;;
10383;SDS011;5238;43.508;4.980;2023-02-15T06:48:45;33.63;;;24.05;;
10383;SDS011;5238;43.508;4.980;2023-02-15T06:51:15;35.72;;;25.35;;
10383;SDS011;5238;43.508;4.980;2023-02-15T06:53:45;33.72;;;25.27;;
10383;SDS011;5238;43.508;4.980;2023-02-15T06:56:12;32.65;;;24.77;;
10383;SDS011;5238;43.508;4.980;2023-02-15T06:58:40;36.10;;;24.63;;
10383;SDS011;5238;43.508;4.980;2023-02-15T07:01:07;34.45;;;24.60;;
10383;SDS011;5238;43.508;4.980;2023-02-15T07:03:35;35.40;;;24.35;;
10383;SDS011;5238;43.508;4.980;2023-02-15T07:06:03;37.45;;;24.38;;
10383;SDS011;5238;43.508;4.980;2023-02-15T07:08:37;37.40;;;24.38;;
10383;SDS011;5238;43.508;4.980;2023-02-15T07:11:04;34.80;;;22.85;;
10383;SDS011;5238;43.508;4.980;2023-02-15T07:13:50;31.70;;;22.58;;
10383;SDS011;5238;43.508;4.980;2023-02-15T07:16:19;33.70;;;23.52;;
10383;SDS011;5238;43.508;4.980;2023-02-15T07:18:46;30.98;;;21.33;;
10383;SDS011;5238;43.508;4.980;2023-02-15T07:21:13;32.78;;;21.88;;
10383;SDS011;5238;43.508;4.980;2023-02-15T07:23:43;30.33;;;21.67;;
10383;SDS011;5238;43.508;4.980;2023-02-15T07:26:12;31.30;;;22.08;;
10383;SDS011;5238;43.508;4.980;2023-02-15T07:28:39;30.92;;;20.55;;
10383;SDS011;5238;43.508;4.980;2023-02-15T07:31:06;28.90;;;19.77;;
10383;SDS011;5238;43.508;4.980;2023-02-15T07:33:36;29.75;;;20.08;;
10383;SDS011;5238;43.508;4.980;2023-02-15T07:36:03;28.88;;;19.55;;
10383;SDS011;5238;43.508;4.980;2023-02-15T07:38:31;26.67;;;18.65;;
10383;SDS011;5238;43.508;4.980;2023-02-15T07:41:01;30.48;;;19.85;;
10383;SDS011;5238;43.508;4.980;2023-02-15T07:43:29;25.95;;;19.00;;
10383;SDS011;5238;43.508;4.980;2023-02-15T07:45:58;26.55;;;19.88;;
10383;SDS011;5238;43.508;4.980;2023-02-15T07:48:26;28.58;;;20.90;;
10383;SDS011;5238;43.508;4.980;2023-02-15T07:50:53;27.80;;;18.90;;
10383;SDS011;5238;43.508;4.980;2023-02-15T07:53:26;24.50;;;18.80;;
10383;SDS011;5238;43.508;4.980;2023-02-15T07:55:53;24.90;;;18.80;;
10383;SDS011;5238;43.508;4.980;2023-02-15T07:58:22;25.08;;;19.13;;
10383;SDS011;5238;43.508;4.980;2023-02-15T08:01:10;24.40;;;18.25;;
10383;SDS011;5238;43.508;4.980;2023-02-15T08:03:37;23.63;;;17.33;;
10383;SDS011;5238;43.508;4.980;2023-02-15T08:06:07;21.92;;;15.13;;
10383;SDS011;5238;43.508;4.980;2023-02-15T08:08:35;23.00;;;17.98;;
10383;SDS011;5238;43.508;4.980;2023-02-15T08:11:03;23.90;;;16.85;;
10383;SDS011;5238;43.508;4.980;2023-02-15T08:13:51;22.17;;;17.95;;
10383;SDS011;5238;43.508;4.980;2023-02-15T08:16:24;22.85;;;17.65;;
10383;SDS011;5238;43.508;4.980;2023-02-15T08:18:55;20.17;;;15.57;;
10383;SDS011;5238;43.508;4.980;2023-02-15T08:21:27;20.30;;;15.50;;
10383;SDS011;5238;43.508;4.980;2023-02-15T08:23:58;18.65;;;13.95;;
10383;SDS011;5238;43.508;4.980;2023-02-15T08:26:31;40.15;;;26.83;;
10383;SDS011;5238;43.508;4.980;2023-02-15T08:29:00;36.58;;;25.88;;
10383;SDS011;5238;43.508;4.980;2023-02-15T08:31:28;26.98;;;18.60;;
10383;SDS011;5238;43.508;4.980;2023-02-15T08:33:55;17.73;;;13.57;;
10383;SDS011;5238;43.508;4.980;2023-02-15T08:36:24;15.20;;;11.90;;
10383;SDS011;5238;43.508;4.980;2023-02-15T08:38:52;17.25;;;12.93;;
10383;SDS011;5238;43.508;4.980;2023-02-15T08:41:20;17.63;;;14.15;;
10383;SDS011;5238;43.508;4.980;2023-02-15T08:43:50;16.42;;;12.40;;
10383;SDS011;5238;43.508;4.980;2023-02-15T08:46:23;17.13;;;12.98;;
10383;SDS011;5238;43.508;4.980;2023-02-15T08:48:54;14.95;;;12.38;;
10383;SDS011;5238;43.508;4.980;2023-02-15T08:51:22;18.50;;;14.35;;
10383;SDS011;5238;43.508;4.980;2023-02-15T08:53:51;16.55;;;14.00;;
10383;SDS011;5238;43.508;4.980;2023-02-15T08:56:19;16.70;;;12.80;;
10383;SDS011;5238;43.508;4.980;2023-02-15T08:58:47;16.63;;;12.57;;
10383;SDS011;5238;43.508;4.980;2023-02-15T09:01:15;17.25;;;12.15;;
10383;SDS011;5238;43.508;4.980;2023-02-15T09:03:47;14.60;;;12.13;;
10383;SDS011;5238;43.508;4.980;2023-02-15T09:06:17;13.90;;;12.00;;
10383;SDS011;5238;43.508;4.980;2023-02-15T09:08:48;13.02;;;11.55;;
10383;SDS011;5238;43.508;4.980;2023-02-15T09:11:18;13.23;;;11.05;;
10383;SDS011;5238;43.508;4.980;2023-02-15T09:13:49;12.80;;;11.05;;
10383;SDS011;5238;43.508;4.980;2023-02-15T09:16:21;14.40;;;12.32;;
10383;SDS011;5238;43.508;4.980;2023-02-15T09:18:53;15.35;;;13.75;;
10383;SDS011;5238;43.508;4.980;2023-02-15T09:21:23;13.63;;;12.07;;
10383;SDS011;5238;43.508;4.980;2023-02-15T09:23:52;15.10;;;11.25;;
10383;SDS011;5238;43.508;4.980;2023-02-15T09:26:23;24.30;;;12.60;;
10383;SDS011;5238;43.508;4.980;2023-02-15T09:28:53;16.67;;;12.75;;
10383;SDS011;5238;43.508;4.980;2023-02-15T09:31:23;20.00;;;11.68;;
10383;SDS011;5238;43.508;4.980;2023-02-15T09:33:59;14.77;;;11.75;;
10383;SDS011;5238;43.508;4.980;2023-02-15T09:36:31;13.60;;;11.23;;
10383;SDS011;5238;43.508;4.980;2023-02-15T09:39:01;12.95;;;11.05;;
10383;SDS011;5238;43.508;4.980;2023-02-15T09:41:46;15.30;;;11.82;;
10383;SDS011;5238;43.508;4.980;2023-02-15T09:44:30;18.55;;;12.27;;
10383;SDS011;5238;43.508;4.980;2023-02-15T09:47:12;16.42;;;11.90;;
10383;SDS011;5238;43.508;4.980;2023-02-15T09:49:54;44.72;;;13.43;;
10383;SDS011;5238;43.508;4.980;2023-02-15T09:52:38;16.52;;;11.82;;
10383;SDS011;5238;43.508;4.980;2023-02-15T09:55:36;21.92;;;12.80;;
10383;SDS011;5238;43.508;4.980;2023-02-15T09:58:14;18.55;;;11.40;;
10383;SDS011;5238;43.508;4.980;2023-02-15T10:00:55;17.38;;;12.48;;
10383;SDS011;5238;43.508;4.980;2023-02-15T10:03:33;16.92;;;11.95;;
10383;SDS011;5238;43.508;4.980;2023-02-15T10:09:12;16.38;;;12.95;;
10383;SDS011;5238;43.508;4.980;2023-02-15T10:11:57;16.13;;;11.90;;
10383;SDS011;5238;43.508;4.980;2023-02-15T10:14:43;14.63;;;12.50;;
10383;SDS011;5238;43.508;4.980;2023-02-15T10:17:29;13.43;;;12.05;;
10383;SDS011;5238;43.508;4.980;2023-02-15T10:20:17;15.27;;;12.05;;
10383;SDS011;5238;43.508;4.980;2023-02-15T10:23:00;12.82;;;10.88;;
10383;SDS011;5238;43.508;4.980;2023-02-15T10:25:47;13.05;;;11.38;;
10383;SDS011;5238;43.508;4.980;2023-02-15T10:28:23;15.57;;;11.73;;
10383;SDS011;5238;43.508;4.980;2023-02-15T10:30:54;13.32;;;11.50;;
10383;SDS011;5238;43.508;4.980;2023-02-15T10:33:31;15.32;;;11.77;;
10383;SDS011;5238;43.508;4.980;2023-02-15T10:36:07;13.93;;;12.13;;
10383;SDS011;5238;43.508;4.980;2023-02-15T10:38:47;16.42;;;12.45;;
10383;SDS011;5238;43.508;4.980;2023-02-15T10:41:27;13.88;;;10.77;;
10383;SDS011;5238;43.508;4.980;2023-02-15T10:44:05;13.77;;;11.98;;
10383;SDS011;5238;43.508;4.980;2023-02-15T10:46:52;18.67;;;11.52;;
10383;SDS011;5238;43.508;4.980;2023-02-15T10:49:48;14.13;;;11.10;;
10383;SDS011;5238;43.508;4.980;2023-02-15T10:52:39;13.05;;;11.65;;
10383;SDS011;5238;43.508;4.980;2023-02-15T10:55:33;14.35;;;12.82;;
10383;SDS011;5238;43.508;4.980;2023-02-15T10:58:17;14.07;;;12.55;;
10383;SDS011;5238;43.508;4.980;2023-02-15T11:00:58;14.75;;;13.13;;
10383;SDS011;5238;43.508;4.980;2023-02-15T11:03:40;13.13;;;11.77;;
10383;SDS011;5238;43.508;4.980;2023-02-15T11:06:23;13.00;;;11.60;;
10383;SDS011;5238;43.508;4.980;2023-02-15T11:08:54;11.45;;;10.40;;
10383;SDS011;5238;43.508;4.980;2023-02-15T11:11:50;24.55;;;18.10;;
10383;SDS011;5238;43.508;4.980;2023-02-15T11:14:22;13.15;;;9.88;;
10383;SDS011;5238;43.508;4.980;2023-02-15T11:16:57;9.35;;;8.10;;
10383;SDS011;5238;43.508;4.980;2023-02-15T11:19:31;8.23;;;7.45;;
10383;SDS011;5238;43.508;4.980;2023-02-15T11:22:05;13.05;;;8.25;;
10383;SDS011;5238;43.508;4.980;2023-02-15T11:24:37;10.60;;;9.25;;
10383;SDS011;5238;43.508;4.980;2023-02-15T11:27:15;8.50;;;7.40;;
10383;SDS011;5238;43.508;4.980;2023-02-15T11:29:48;8.85;;;7.97;;
10383;SDS011;5238;43.508;4.980;2023-02-15T11:32:26;8.27;;;7.35;;
10383;SDS011;5238;43.508;4.980;2023-02-15T11:35:10;12.30;;;9.30;;
10383;SDS011;5238;43.508;4.980;2023-02-15T11:37:54;10.63;;;8.88;;
10383;SDS011;5238;43.508;4.980;2023-02-15T11:40:32;9.63;;;5.88;;
10383;SDS011;5238;43.508;4.980;2023-02-15T11:43:13;8.95;;;5.65;;
10383;SDS011;5238;43.508;4.980;2023-02-15T11:45:47;6.40;;;5.80;;
10383;SDS011;5238;43.508;4.980;2023-02-15T11:48:18;7.50;;;6.80;;
10383;SDS011;5238;43.508;4.980;2023-02-15T11:50:46;11.02;;;6.63;;
10383;SDS011;5238;43.508;4.980;2023-02-15T11:53:14;12.68;;;11.38;;
10383;SDS011;5238;43.508;4.980;2023-02-15T11:55:47;8.27;;;7.55;;
10383;SDS011;5238;43.508;4.980;2023-02-15T11:58:25;9.18;;;6.78;;
10383;SDS011;5238;43.508;4.980;2023-02-15T12:00:56;12.00;;;10.45;;
10383;SDS011;5238;43.508;4.980;2023-02-15T12:03:33;13.45;;;10.70;;
10383;SDS011;5238;43.508;4.980;2023-02-15T12:06:17;14.52;;;11.02;;
10383;SDS011;5238;43.508;4.980;2023-02-15T12:08:50;9.80;;;8.60;;
10383;SDS011;5238;43.508;4.980;2023-02-15T12:11:23;12.05;;;8.80;;
10383;SDS011;5238;43.508;4.980;2023-02-15T12:13:57;12.02;;;7.70;;
10383;SDS011;5238;43.508;4.980;2023-02-15T12:16:29;11.95;;;8.65;;
10383;SDS011;5238;43.508;4.980;2023-02-15T12:19:09;10.43;;;8.05;;
10383;SDS011;5238;43.508;4.980;2023-02-15T12:21:53;11.57;;;8.73;;
10383;SDS011;5238;43.508;4.980;2023-02-15T12:24:21;11.27;;;8.52;;
10383;SDS011;5238;43.508;4.980;2023-02-15T12:26:55;9.90;;;8.82;;
10383;SDS011;5238;43.508;4.980;2023-02-15T12:29:29;10.23;;;8.93;;
10383;SDS011;5238;43.508;4.980;2023-02-15T12:32:01;12.00;;;7.82;;
10383;SDS011;5238;43.508;4.980;2023-02-15T12:34:32;10.57;;;6.75;;
10383;SDS011;5238;43.508;4.980;2023-02-15T12:37:07;10.43;;;6.75;;
10383;SDS011;5238;43.508;4.980;2023-02-15T12:39:51;8.45;;;6.50;;
10383;SDS011;5238;43.508;4.980;2023-02-15T12:42:25;7.65;;;6.88;;
10383;SDS011;5238;43.508;4.980;2023-02-15T12:45:02;11.00;;;9.82;;
10383;SDS011;5238;43.508;4.980;2023-02-15T12:50:38;10.02;;;8.93;;
10383;SDS011;5238;43.508;4.980;2023-02-15T12:53:07;9.38;;;8.20;;
10383;SDS011;5238;43.508;4.980;2023-02-15T12:55:44;9.40;;;8.02;;
10383;SDS011;5238;43.508;4.980;2023-02-15T12:58:17;11.02;;;7.47;;
10383;SDS011;5238;43.508;4.980;2023-02-15T13:00:48;9.13;;;7.30;;
10383;SDS011;5238;43.508;4.980;2023-02-15T13:03:31;6.53;;;5.57;;
10383;SDS011;5238;43.508;4.980;2023-02-15T13:06:02;7.05;;;6.32;;
10383;SDS011;5238;43.508;4.980;2023-02-15T13:08:34;7.15;;;6.55;;
10383;SDS011;5238;43.508;4.980;2023-02-15T13:11:04;7.93;;;5.30;;
10383;SDS011;5238;43.508;4.980;2023-02-15T13:13:35;5.60;;;5.07;;
10383;SDS011;5238;43.508;4.980;2023-02-15T13:16:14;11.18;;;6.25;;
10383;SDS011;5238;43.508;4.980;2023-02-15T13:18:52;7.22;;;6.28;;
10383;SDS011;5238;43.508;4.980;2023-02-15T13:21:20;8.13;;;5.63;;
10383;SDS011;5238;43.508;4.980;2023-02-15T13:23:52;7.18;;;6.47;;
10383;SDS011;5238;43.508;4.980;2023-02-15T13:26:26;6.22;;;5.22;;
10383;SDS011;5238;43.508;4.980;2023-02-15T13:28:57;5.20;;;4.53;;
10383;SDS011;5238;43.508;4.980;2023-02-15T13:31:37;7.60;;;4.82;;
10383;SDS011;5238;43.508;4.980;2023-02-15T13:34:07;6.05;;;5.38;;
10383;SDS011;5238;43.508;4.980;2023-02-15T13:36:40;6.22;;;4.70;;
10383;SDS011;5238;43.508;4.980;2023-02-15T13:39:18;6.95;;;6.05;;
10383;SDS011;5238;43.508;4.980;2023-02-15T13:41:52;5.22;;;4.70;;
10383;SDS011;5238;43.508;4.980;2023-02-15T13:47:43;7.68;;;6.68;;
10383;SDS011;5238;43.508;4.980;2023-02-15T13:50:20;7.50;;;6.80;;
10383;SDS011;5238;43.508;4.980;2023-02-15T13:53:09;7.05;;;6.05;;
10383;SDS011;5238;43.508;4.980;2023-02-15T13:56:00;9.95;;;7.13;;
10383;SDS011;5238;43.508;4.980;2023-02-15T14:01:49;5.35;;;4.65;;
10383;SDS011;5238;43.508;4.980;2023-02-15T14:07:31;7.47;;;5.45;;
10383;SDS011;5238;43.508;4.980;2023-02-15T14:10:25;6.13;;;5.50;;
10383;SDS011;5238;43.508;4.980;2023-02-15T14:16:09;6.72;;;5.85;;
10383;SDS011;5238;43.508;4.980;2023-02-15T14:18:47;6.45;;;5.85;;
10383;SDS011;5238;43.508;4.980;2023-02-15T14:21:30;6.75;;;6.15;;
10383;SDS011;5238;43.508;4.980;2023-02-15T14:24:09;9.10;;;6.03;;
10383;SDS011;5238;43.508;4.980;2023-02-15T14:26:52;7.53;;;5.68;;
10383;SDS011;5238;43.508;4.980;2023-02-15T14:29:34;5.15;;;4.65;;
10383;SDS011;5238;43.508;4.980;2023-02-15T14:32:18;5.10;;;4.60;;
10383;SDS011;5238;43.508;4.980;2023-02-15T14:34:52;7.97;;;5.30;;
10383;SDS011;5238;43.508;4.980;2023-02-15T14:37:24;8.30;;;5.57;;
10383;SDS011;5238;43.508;4.980;2023-02-15T14:40:02;6.15;;;5.25;;
10383;SDS011;5238;43.508;4.980;2023-02-15T14:42:55;6.35;;;5.10;;
10383;SDS011;5238;43.508;4.980;2023-02-15T14:45:28;7.43;;;5.43;;
10383;SDS011;5238;43.508;4.980;2023-02-15T14:48:02;9.38;;;5.38;;
10383;SDS011;5238;43.508;4.980;2023-02-15T14:50:38;6.93;;;5.35;;
10383;SDS011;5238;43.508;4.980;2023-02-15T14:53:36;7.82;;;6.65;;
10383;SDS011;5238;43.508;4.980;2023-02-15T14:56:20;9.02;;;6.15;;
10383;SDS011;5238;43.508;4.980;2023-02-15T14:58:58;8.20;;;6.07;;
10383;SDS011;5238;43.508;4.980;2023-02-15T15:01:41;6.57;;;5.88;;
10383;SDS011;5238;43.508;4.980;2023-02-15T15:04:21;6.50;;;5.88;;
10383;SDS011;5238;43.508;4.980;2023-02-15T15:06:57;6.47;;;4.93;;
10383;SDS011;5238;43.508;4.980;2023-02-15T15:09:32;6.97;;;5.30;;
10383;SDS011;5238;43.508;4.980;2023-02-15T15:15:02;5.05;;;4.55;;
10383;SDS011;5238;43.508;4.980;2023-02-15T15:26:36;6.43;;;4.78;;
10383;SDS011;5238;43.508;4.980;2023-02-15T15:29:06;5.78;;;4.25;;
10383;SDS011;5238;43.508;4.980;2023-02-15T15:31:37;6.38;;;4.32;;
10383;SDS011;5238;43.508;4.980;2023-02-15T15:34:19;8.40;;;4.57;;
10383;SDS011;5238;43.508;4.980;2023-02-15T15:37:34;5.85;;;4.00;;
10383;SDS011;5238;43.508;4.980;2023-02-15T15:40:40;5.72;;;5.15;;
10383;SDS011;5238;43.508;4.980;2023-02-15T15:46:37;7.00;;;4.65;;
10383;SDS011;5238;43.508;4.980;2023-02-15T15:49:15;5.10;;;4.43;;
10383;SDS011;5238;43.508;4.980;2023-02-15T15:51:45;8.45;;;5.82;;
10383;SDS011;5238;43.508;4.980;2023-02-15T15:54:15;4.57;;;4.18;;
10383;SDS011;5238;43.508;4.980;2023-02-15T15:56:47;4.35;;;3.83;;
10383;SDS011;5238;43.508;4.980;2023-02-15T15:59:22;5.22;;;3.92;;
10383;SDS011;5238;43.508;4.980;2023-02-15T16:01:51;5.63;;;5.13;;
10383;SDS011;5238;43.508;4.980;2023-02-15T16:04:24;6.38;;;5.68;;